2NY5 weather

Strong Memorial Hospital Heliport
Rochester, New York, United States

Public forecast

Using degrees Fahrenheit for public forecast. Weather courtesy of forecast.io.

METAR (pilot weather report)

Closest report is Greater Rochester International Airport, 2.2 nm (4.0 km) W. Retrieved 2019/05/23 12:54 UTC (27 minutes ago):

KROC 231254Z 18006KT 10SM FEW070 FEW100 BKN150 OVC250 20/13 A2998 RMK AO2 SLP154 T02000133

TAF (pilot weather forecast)

Closest forecast is Greater Rochester International Airport, 2.2 nm (4.0 km) W. Retrieved 2019/05/23 12:22 UTC (59 minutes ago):

TAF KROC 231120Z 2312/2412 18007KT P6SM FEW250 FM231400 21007KT P6SM BKN120 FM231600 23011G24KT 5SM -TSRA BR BKN050CB FM231800 25020G38KT P6SM -SHRA BKN035 FM232000 26020G30KT P6SM SCT120 FM240300 28010KT P6SM SCT045